sensor_id;sensor_type;location;lat;lon;timestamp;temperature;humidity
18384;DHT22;9318;48.644;9.456;2024-02-16T00:00:23;9.40;99.90
18384;DHT22;9318;48.644;9.456;2024-02-16T00:02:50;9.50;99.90
18384;DHT22;9318;48.644;9.456;2024-02-16T00:05:17;9.50;99.90
18384;DHT22;9318;48.644;9.456;2024-02-16T00:07:44;9.50;99.90
18384;DHT22;9318;48.644;9.456;2024-02-16T00:10:11;9.50;99.90
18384;DHT22;9318;48.644;9.456;2024-02-16T00:12:38;9.60;99.90
18384;DHT22;9318;48.644;9.456;2024-02-16T00:15:09;9.60;99.90
18384;DHT22;9318;48.644;9.456;2024-02-16T00:17:36;9.60;99.90
18384;DHT22;9318;48.644;9.456;2024-02-16T00:20:04;9.60;99.90
18384;DHT22;9318;48.644;9.456;2024-02-16T00:22:32;9.60;99.90
18384;DHT22;9318;48.644;9.456;2024-02-16T00:24:59;9.60;99.90
18384;DHT22;9318;48.644;9.456;2024-02-16T00:27:26;9.60;99.90
18384;DHT22;9318;48.644;9.456;2024-02-16T00:29:53;9.50;99.90
18384;DHT22;9318;48.644;9.456;2024-02-16T00:32:21;9.50;99.90
18384;DHT22;9318;48.644;9.456;2024-02-16T00:34:49;9.50;99.90
18384;DHT22;9318;48.644;9.456;2024-02-16T00:37:19;9.50;99.90
18384;DHT22;9318;48.644;9.456;2024-02-16T00:39:46;9.40;99.90
18384;DHT22;9318;48.644;9.456;2024-02-16T00:42:13;9.50;99.90
18384;DHT22;9318;48.644;9.456;2024-02-16T00:44:40;9.40;99.90
18384;DHT22;9318;48.644;9.456;2024-02-16T00:47:07;9.50;99.90
18384;DHT22;9318;48.644;9.456;2024-02-16T00:49:37;9.50;99.90
18384;DHT22;9318;48.644;9.456;2024-02-16T00:52:04;9.50;99.90
18384;DHT22;9318;48.644;9.456;2024-02-16T00:54:31;9.50;99.90
18384;DHT22;9318;48.644;9.456;2024-02-16T00:56:57;9.40;99.90
18384;DHT22;9318;48.644;9.456;2024-02-16T00:59:28;9.40;99.90
18384;DHT22;9318;48.644;9.456;2024-02-16T01:01:54;9.50;99.90
18384;DHT22;9318;48.644;9.456;2024-02-16T01:04:21;9.50;99.90
18384;DHT22;9318;48.644;9.456;2024-02-16T01:06:49;9.40;99.90
18384;DHT22;9318;48.644;9.456;2024-02-16T01:09:16;9.40;99.90
18384;DHT22;9318;48.644;9.456;2024-02-16T01:11:43;9.50;99.90
18384;DHT22;9318;48.644;9.456;2024-02-16T01:14:09;9.50;99.90
18384;DHT22;9318;48.644;9.456;2024-02-16T01:16:36;9.60;99.90
18384;DHT22;9318;48.644;9.456;2024-02-16T01:19:03;9.60;99.90
18384;DHT22;9318;48.644;9.456;2024-02-16T01:21:31;9.60;99.90
18384;DHT22;9318;48.644;9.456;2024-02-16T01:23:59;9.60;99.90
18384;DHT22;9318;48.644;9.456;2024-02-16T01:26:26;9.50;99.90
18384;DHT22;9318;48.644;9.456;2024-02-16T01:28:53;9.50;99.90
18384;DHT22;9318;48.644;9.456;2024-02-16T01:31:20;9.50;99.90
18384;DHT22;9318;48.644;9.456;2024-02-16T01:33:47;9.50;99.90
18384;DHT22;9318;48.644;9.456;2024-02-16T01:36:14;9.40;99.90
18384;DHT22;9318;48.644;9.456;2024-02-16T01:38:40;9.40;99.90
18384;DHT22;9318;48.644;9.456;2024-02-16T01:41:08;9.40;99.90
18384;DHT22;9318;48.644;9.456;2024-02-16T01:43:36;9.40;99.90
18384;DHT22;9318;48.644;9.456;2024-02-16T01:46:03;9.40;99.90
18384;DHT22;9318;48.644;9.456;2024-02-16T01:48:30;9.40;99.90
18384;DHT22;9318;48.644;9.456;2024-02-16T01:50:59;9.50;99.90
18384;DHT22;9318;48.644;9.456;2024-02-16T01:53:28;9.50;99.90
18384;DHT22;9318;48.644;9.456;2024-02-16T01:55:55;9.50;99.90
18384;DHT22;9318;48.644;9.456;2024-02-16T01:58:23;9.50;99.90
18384;DHT22;9318;48.644;9.456;2024-02-16T02:00:52;9.50;99.90
18384;DHT22;9318;48.644;9.456;2024-02-16T02:03:20;9.40;99.90
18384;DHT22;9318;48.644;9.456;2024-02-16T02:05:48;9.40;99.90
18384;DHT22;9318;48.644;9.456;2024-02-16T02:08:16;9.40;99.90
18384;DHT22;9318;48.644;9.456;2024-02-16T02:10:43;9.40;99.90
18384;DHT22;9318;48.644;9.456;2024-02-16T02:13:10;9.40;99.90
18384;DHT22;9318;48.644;9.456;2024-02-16T02:15:38;9.40;99.90
18384;DHT22;9318;48.644;9.456;2024-02-16T02:18:04;9.40;99.90
18384;DHT22;9318;48.644;9.456;2024-02-16T02:20:31;9.50;99.90
18384;DHT22;9318;48.644;9.456;2024-02-16T02:23:00;9.40;99.90
18384;DHT22;9318;48.644;9.456;2024-02-16T02:25:27;9.40;99.90
18384;DHT22;9318;48.644;9.456;2024-02-16T02:27:55;9.40;99.90
18384;DHT22;9318;48.644;9.456;2024-02-16T02:30:22;9.40;99.90
18384;DHT22;9318;48.644;9.456;2024-02-16T02:32:50;9.40;99.90
18384;DHT22;9318;48.644;9.456;2024-02-16T02:35:17;9.40;99.90
18384;DHT22;9318;48.644;9.456;2024-02-16T02:37:44;9.40;99.90
18384;DHT22;9318;48.644;9.456;2024-02-16T02:40:13;9.40;99.90
18384;DHT22;9318;48.644;9.456;2024-02-16T02:42:40;9.40;99.90
18384;DHT22;9318;48.644;9.456;2024-02-16T02:45:08;9.40;99.90
18384;DHT22;9318;48.644;9.456;2024-02-16T02:47:34;9.40;99.90
18384;DHT22;9318;48.644;9.456;2024-02-16T02:50:01;9.40;99.90
18384;DHT22;9318;48.644;9.456;2024-02-16T02:52:28;9.30;99.90
18384;DHT22;9318;48.644;9.456;2024-02-16T02:54:55;9.30;99.90
18384;DHT22;9318;48.644;9.456;2024-02-16T02:57:23;9.40;99.90
18384;DHT22;9318;48.644;9.456;2024-02-16T02:59:50;9.40;99.90
18384;DHT22;9318;48.644;9.456;2024-02-16T03:02:16;9.40;99.90
18384;DHT22;9318;48.644;9.456;2024-02-16T03:04:43;9.40;99.90
18384;DHT22;9318;48.644;9.456;2024-02-16T03:07:10;9.40;99.90
18384;DHT22;9318;48.644;9.456;2024-02-16T03:09:36;9.40;99.90
18384;DHT22;9318;48.644;9.456;2024-02-16T03:12:04;9.40;99.90
18384;DHT22;9318;48.644;9.456;2024-02-16T03:14:32;9.40;99.90
18384;DHT22;9318;48.644;9.456;2024-02-16T03:16:59;9.30;99.90
18384;DHT22;9318;48.644;9.456;2024-02-16T03:19:26;9.30;99.90
18384;DHT22;9318;48.644;9.456;2024-02-16T03:21:52;9.40;99.90
18384;DHT22;9318;48.644;9.456;2024-02-16T03:24:19;9.30;99.90
18384;DHT22;9318;48.644;9.456;2024-02-16T03:26:47;9.30;99.90
18384;DHT22;9318;48.644;9.456;2024-02-16T03:29:14;9.30;99.90
18384;DHT22;9318;48.644;9.456;2024-02-16T03:31:42;9.30;99.90
18384;DHT22;9318;48.644;9.456;2024-02-16T03:34:09;9.40;99.90
18384;DHT22;9318;48.644;9.456;2024-02-16T03:36:35;9.30;99.90
18384;DHT22;9318;48.644;9.456;2024-02-16T03:39:02;9.30;99.90
18384;DHT22;9318;48.644;9.456;2024-02-16T03:41:29;9.20;99.90
18384;DHT22;9318;48.644;9.456;2024-02-16T03:43:56;9.20;99.90
18384;DHT22;9318;48.644;9.456;2024-02-16T03:46:24;9.20;99.90
18384;DHT22;9318;48.644;9.456;2024-02-16T03:48:52;9.10;99.90
18384;DHT22;9318;48.644;9.456;2024-02-16T03:51:19;9.20;99.90
18384;DHT22;9318;48.644;9.456;2024-02-16T03:53:46;9.20;99.90
18384;DHT22;9318;48.644;9.456;2024-02-16T03:56:18;9.10;99.90
18384;DHT22;9318;48.644;9.456;2024-02-16T03:58:46;9.10;99.90
18384;DHT22;9318;48.644;9.456;2024-02-16T04:01:13;9.10;99.90
18384;DHT22;9318;48.644;9.456;2024-02-16T04:03:40;9.00;99.90
18384;DHT22;9318;48.644;9.456;2024-02-16T04:06:08;9.00;99.90
18384;DHT22;9318;48.644;9.456;2024-02-16T04:08:35;9.00;99.90
18384;DHT22;9318;48.644;9.456;2024-02-16T04:11:01;9.00;99.90
18384;DHT22;9318;48.644;9.456;2024-02-16T04:13:29;8.90;99.90
18384;DHT22;9318;48.644;9.456;2024-02-16T04:15:58;8.90;99.90
18384;DHT22;9318;48.644;9.456;2024-02-16T04:18:24;8.90;99.90
18384;DHT22;9318;48.644;9.456;2024-02-16T04:20:51;8.90;99.90
18384;DHT22;9318;48.644;9.456;2024-02-16T04:23:19;8.90;99.90
18384;DHT22;9318;48.644;9.456;2024-02-16T04:25:46;8.90;99.90
18384;DHT22;9318;48.644;9.456;2024-02-16T04:28:13;8.90;99.90
18384;DHT22;9318;48.644;9.456;2024-02-16T04:30:39;8.90;99.90
18384;DHT22;9318;48.644;9.456;2024-02-16T04:33:06;8.80;99.90
18384;DHT22;9318;48.644;9.456;2024-02-16T04:35:33;8.80;99.90
18384;DHT22;9318;48.644;9.456;2024-02-16T04:38:00;8.80;99.90
18384;DHT22;9318;48.644;9.456;2024-02-16T04:40:28;8.80;99.90
18384;DHT22;9318;48.644;9.456;2024-02-16T04:43:00;8.80;99.90
18384;DHT22;9318;48.644;9.456;2024-02-16T04:45:27;8.80;99.90
18384;DHT22;9318;48.644;9.456;2024-02-16T04:47:55;8.80;99.90
18384;DHT22;9318;48.644;9.456;2024-02-16T04:50:22;8.70;99.90
18384;DHT22;9318;48.644;9.456;2024-02-16T04:52:48;8.80;99.90
18384;DHT22;9318;48.644;9.456;2024-02-16T04:55:15;8.80;99.90
18384;DHT22;9318;48.644;9.456;2024-02-16T04:57:43;8.80;99.90
18384;DHT22;9318;48.644;9.456;2024-02-16T05:00:10;8.80;99.90
18384;DHT22;9318;48.644;9.456;2024-02-16T05:02:38;8.80;99.90
18384;DHT22;9318;48.644;9.456;2024-02-16T05:05:05;8.80;99.90
18384;DHT22;9318;48.644;9.456;2024-02-16T05:07:31;8.70;99.90
18384;DHT22;9318;48.644;9.456;2024-02-16T05:09:58;8.70;99.90
18384;DHT22;9318;48.644;9.456;2024-02-16T05:12:26;8.70;99.90
18384;DHT22;9318;48.644;9.456;2024-02-16T05:14:54;8.70;99.90
18384;DHT22;9318;48.644;9.456;2024-02-16T05:17:21;8.70;99.90
18384;DHT22;9318;48.644;9.456;2024-02-16T05:19:48;8.70;99.90
18384;DHT22;9318;48.644;9.456;2024-02-16T05:22:15;8.60;99.90
18384;DHT22;9318;48.644;9.456;2024-02-16T05:24:43;8.60;99.90
18384;DHT22;9318;48.644;9.456;2024-02-16T05:27:10;8.60;99.90
18384;DHT22;9318;48.644;9.456;2024-02-16T05:29:37;8.70;99.90
18384;DHT22;9318;48.644;9.456;2024-02-16T05:32:05;8.60;99.90
18384;DHT22;9318;48.644;9.456;2024-02-16T05:34:32;8.70;99.90
18384;DHT22;9318;48.644;9.456;2024-02-16T05:37:03;8.70;99.90
18384;DHT22;9318;48.644;9.456;2024-02-16T05:39:31;8.70;99.90
18384;DHT22;9318;48.644;9.456;2024-02-16T05:42:00;8.70;99.90
18384;DHT22;9318;48.644;9.456;2024-02-16T05:44:27;8.70;99.90
18384;DHT22;9318;48.644;9.456;2024-02-16T05:46:54;8.70;99.90
18384;DHT22;9318;48.644;9.456;2024-02-16T05:49:22;8.70;99.90
18384;DHT22;9318;48.644;9.456;2024-02-16T05:51:50;8.70;99.90
18384;DHT22;9318;48.644;9.456;2024-02-16T05:54:43;8.80;99.90
18384;DHT22;9318;48.644;9.456;2024-02-16T05:57:10;8.80;99.90
18384;DHT22;9318;48.644;9.456;2024-02-16T05:59:38;8.80;99.90
18384;DHT22;9318;48.644;9.456;2024-02-16T06:02:05;8.80;99.90
18384;DHT22;9318;48.644;9.456;2024-02-16T06:04:33;8.80;99.90
18384;DHT22;9318;48.644;9.456;2024-02-16T06:07:00;8.80;99.90
18384;DHT22;9318;48.644;9.456;2024-02-16T06:09:27;8.80;99.90
18384;DHT22;9318;48.644;9.456;2024-02-16T06:12:03;8.80;99.90
18384;DHT22;9318;48.644;9.456;2024-02-16T06:14:30;8.80;99.90
18384;DHT22;9318;48.644;9.456;2024-02-16T06:16:57;8.80;99.90
18384;DHT22;9318;48.644;9.456;2024-02-16T06:19:24;8.80;99.90
18384;DHT22;9318;48.644;9.456;2024-02-16T06:21:52;8.80;99.90
18384;DHT22;9318;48.644;9.456;2024-02-16T06:24:20;8.80;99.90
18384;DHT22;9318;48.644;9.456;2024-02-16T06:26:46;8.80;99.90
18384;DHT22;9318;48.644;9.456;2024-02-16T06:29:13;8.70;99.90
18384;DHT22;9318;48.644;9.456;2024-02-16T06:31:40;8.70;99.90
18384;DHT22;9318;48.644;9.456;2024-02-16T06:34:07;8.80;99.90
18384;DHT22;9318;48.644;9.456;2024-02-16T06:36:34;8.70;99.90
18384;DHT22;9318;48.644;9.456;2024-02-16T06:39:02;8.70;99.90
18384;DHT22;9318;48.644;9.456;2024-02-16T06:41:29;8.70;99.90
18384;DHT22;9318;48.644;9.456;2024-02-16T06:43:56;8.60;99.90
18384;DHT22;9318;48.644;9.456;2024-02-16T06:46:23;8.60;99.90
18384;DHT22;9318;48.644;9.456;2024-02-16T06:48:50;8.60;99.90
18384;DHT22;9318;48.644;9.456;2024-02-16T06:51:17;8.60;99.90
18384;DHT22;9318;48.644;9.456;2024-02-16T06:53:44;8.60;99.90
18384;DHT22;9318;48.644;9.456;2024-02-16T06:56:12;8.60;99.90
18384;DHT22;9318;48.644;9.456;2024-02-16T06:58:39;8.70;99.90
18384;DHT22;9318;48.644;9.456;2024-02-16T07:01:07;8.70;99.90
18384;DHT22;9318;48.644;9.456;2024-02-16T07:03:34;8.70;99.90
18384;DHT22;9318;48.644;9.456;2024-02-16T07:06:02;8.70;99.90
18384;DHT22;9318;48.644;9.456;2024-02-16T07:08:29;8.70;99.90
18384;DHT22;9318;48.644;9.456;2024-02-16T07:10:56;8.80;99.90
18384;DHT22;9318;48.644;9.456;2024-02-16T07:13:24;8.80;99.90
18384;DHT22;9318;48.644;9.456;2024-02-16T07:15:51;8.90;99.90
18384;DHT22;9318;48.644;9.456;2024-02-16T07:18:17;9.00;99.90
18384;DHT22;9318;48.644;9.456;2024-02-16T07:20:44;9.00;99.90
18384;DHT22;9318;48.644;9.456;2024-02-16T07:23:11;9.00;99.90
18384;DHT22;9318;48.644;9.456;2024-02-16T07:25:38;9.10;99.90
18384;DHT22;9318;48.644;9.456;2024-02-16T07:28:05;9.10;99.90
18384;DHT22;9318;48.644;9.456;2024-02-16T07:30:34;9.20;99.90
18384;DHT22;9318;48.644;9.456;2024-02-16T07:33:04;9.40;99.90
18384;DHT22;9318;48.644;9.456;2024-02-16T07:35:32;9.50;99.90
18384;DHT22;9318;48.644;9.456;2024-02-16T07:38:01;9.60;99.90
18384;DHT22;9318;48.644;9.456;2024-02-16T07:40:28;9.70;99.90
18384;DHT22;9318;48.644;9.456;2024-02-16T07:42:56;9.90;99.90
18384;DHT22;9318;48.644;9.456;2024-02-16T07:45:23;10.30;99.90
18384;DHT22;9318;48.644;9.456;2024-02-16T07:47:52;10.90;99.90
18384;DHT22;9318;48.644;9.456;2024-02-16T07:50:19;11.40;99.90
18384;DHT22;9318;48.644;9.456;2024-02-16T07:52:47;11.40;99.90
18384;DHT22;9318;48.644;9.456;2024-02-16T07:55:14;11.30;99.90
18384;DHT22;9318;48.644;9.456;2024-02-16T07:57:43;11.20;99.90
18384;DHT22;9318;48.644;9.456;2024-02-16T08:00:11;11.00;99.90
18384;DHT22;9318;48.644;9.456;2024-02-16T08:02:38;11.00;99.90
18384;DHT22;9318;48.644;9.456;2024-02-16T08:05:09;11.10;99.90
18384;DHT22;9318;48.644;9.456;2024-02-16T08:07:38;11.10;99.90
18384;DHT22;9318;48.644;9.456;2024-02-16T08:10:07;11.10;99.90
18384;DHT22;9318;48.644;9.456;2024-02-16T08:12:34;11.10;99.90
18384;DHT22;9318;48.644;9.456;2024-02-16T08:15:03;11.20;99.90
18384;DHT22;9318;48.644;9.456;2024-02-16T08:17:32;11.20;99.90
18384;DHT22;9318;48.644;9.456;2024-02-16T08:19:59;11.30;99.90
18384;DHT22;9318;48.644;9.456;2024-02-16T08:22:28;11.30;99.90
18384;DHT22;9318;48.644;9.456;2024-02-16T08:24:55;11.40;99.90
18384;DHT22;9318;48.644;9.456;2024-02-16T08:27:22;11.50;99.90
18384;DHT22;9318;48.644;9.456;2024-02-16T08:29:50;11.70;99.90
18384;DHT22;9318;48.644;9.456;2024-02-16T08:32:18;12.20;99.90
18384;DHT22;9318;48.644;9.456;2024-02-16T08:34:46;13.00;99.90
18384;DHT22;9318;48.644;9.456;2024-02-16T08:37:16;13.70;99.90
18384;DHT22;9318;48.644;9.456;2024-02-16T08:39:44;14.10;99.90
18384;DHT22;9318;48.644;9.456;2024-02-16T08:42:11;14.30;99.90
18384;DHT22;9318;48.644;9.456;2024-02-16T08:44:38;14.40;99.90
18384;DHT22;9318;48.644;9.456;2024-02-16T08:47:06;14.30;99.90
18384;DHT22;9318;48.644;9.456;2024-02-16T08:49:32;14.30;99.90
18384;DHT22;9318;48.644;9.456;2024-02-16T08:51:59;14.30;99.90
18384;DHT22;9318;48.644;9.456;2024-02-16T08:54:26;14.70;99.90
18384;DHT22;9318;48.644;9.456;2024-02-16T08:56:55;15.30;99.90
18384;DHT22;9318;48.644;9.456;2024-02-16T08:59:22;15.80;99.90
18384;DHT22;9318;48.644;9.456;2024-02-16T09:01:49;16.40;99.90
18384;DHT22;9318;48.644;9.456;2024-02-16T09:04:16;17.50;99.90
18384;DHT22;9318;48.644;9.456;2024-02-16T09:06:43;18.40;99.90
18384;DHT22;9318;48.644;9.456;2024-02-16T09:09:09;19.00;99.90
18384;DHT22;9318;48.644;9.456;2024-02-16T09:11:36;19.60;99.90
18384;DHT22;9318;48.644;9.456;2024-02-16T09:14:04;19.70;99.90
18384;DHT22;9318;48.644;9.456;2024-02-16T09:16:31;20.10;99.90
18384;DHT22;9318;48.644;9.456;2024-02-16T09:18:58;20.80;99.90
18384;DHT22;9318;48.644;9.456;2024-02-16T09:21:25;21.90;99.90
18384;DHT22;9318;48.644;9.456;2024-02-16T09:23:54;22.60;99.90
18384;DHT22;9318;48.644;9.456;2024-02-16T09:26:24;23.60;99.90
18384;DHT22;9318;48.644;9.456;2024-02-16T09:28:52;24.40;99.90
18384;DHT22;9318;48.644;9.456;2024-02-16T09:31:21;25.00;99.90
18384;DHT22;9318;48.644;9.456;2024-02-16T09:33:47;24.70;99.90
18384;DHT22;9318;48.644;9.456;2024-02-16T09:36:17;24.70;99.90
18384;DHT22;9318;48.644;9.456;2024-02-16T09:38:44;25.30;99.90
18384;DHT22;9318;48.644;9.456;2024-02-16T09:41:13;26.30;99.40
18384;DHT22;9318;48.644;9.456;2024-02-16T09:43:41;26.70;96.90
18384;DHT22;9318;48.644;9.456;2024-02-16T09:46:08;27.00;97.10
18384;DHT22;9318;48.644;9.456;2024-02-16T09:48:39;27.40;95.70
18384;DHT22;9318;48.644;9.456;2024-02-16T09:51:06;27.00;95.30
18384;DHT22;9318;48.644;9.456;2024-02-16T09:53:33;25.60;95.30
18384;DHT22;9318;48.644;9.456;2024-02-16T09:55:59;24.00;97.20
18384;DHT22;9318;48.644;9.456;2024-02-16T09:58:27;23.20;98.20
18384;DHT22;9318;48.644;9.456;2024-02-16T10:00:54;23.10;99.90
18384;DHT22;9318;48.644;9.456;2024-02-16T10:03:26;23.60;99.50
18384;DHT22;9318;48.644;9.456;2024-02-16T10:06:04;23.90;99.90
18384;DHT22;9318;48.644;9.456;2024-02-16T10:08:32;24.80;98.00
18384;DHT22;9318;48.644;9.456;2024-02-16T10:11:03;25.50;98.10
18384;DHT22;9318;48.644;9.456;2024-02-16T10:13:30;26.00;96.30
18384;DHT22;9318;48.644;9.456;2024-02-16T10:16:05;26.20;95.80
18384;DHT22;9318;48.644;9.456;2024-02-16T10:18:34;25.80;94.40
18384;DHT22;9318;48.644;9.456;2024-02-16T10:21:02;25.20;95.10
18384;DHT22;9318;48.644;9.456;2024-02-16T10:23:29;24.60;94.80
18384;DHT22;9318;48.644;9.456;2024-02-16T10:25:55;24.70;96.00
18384;DHT22;9318;48.644;9.456;2024-02-16T10:28:23;24.80;95.70
18384;DHT22;9318;48.644;9.456;2024-02-16T10:30:57;25.00;96.30
18384;DHT22;9318;48.644;9.456;2024-02-16T10:33:24;25.80;95.10
18384;DHT22;9318;48.644;9.456;2024-02-16T10:35:51;26.40;94.00
18384;DHT22;9318;48.644;9.456;2024-02-16T10:38:20;27.00;92.50
18384;DHT22;9318;48.644;9.456;2024-02-16T10:40:48;27.40;93.00
18384;DHT22;9318;48.644;9.456;2024-02-16T10:43:18;27.00;92.00
18384;DHT22;9318;48.644;9.456;2024-02-16T10:45:44;26.20;92.70
18384;DHT22;9318;48.644;9.456;2024-02-16T10:48:14;25.10;92.40
18384;DHT22;9318;48.644;9.456;2024-02-16T10:50:42;24.20;95.20
18384;DHT22;9318;48.644;9.456;2024-02-16T10:53:13;23.90;95.90
18384;DHT22;9318;48.644;9.456;2024-02-16T10:55:42;23.50;94.20
18384;DHT22;9318;48.644;9.456;2024-02-16T10:58:10;23.00;95.00
18384;DHT22;9318;48.644;9.456;2024-02-16T11:00:48;22.50;96.80
18384;DHT22;9318;48.644;9.456;2024-02-16T11:03:17;22.20;97.40
18384;DHT22;9318;48.644;9.456;2024-02-16T11:05:48;21.80;97.30
18384;DHT22;9318;48.644;9.456;2024-02-16T11:08:17;21.60;97.90
18384;DHT22;9318;48.644;9.456;2024-02-16T11:10:55;21.30;97.80
18384;DHT22;9318;48.644;9.456;2024-02-16T11:13:23;21.10;98.50
18384;DHT22;9318;48.644;9.456;2024-02-16T11:15:56;20.80;98.50
18384;DHT22;9318;48.644;9.456;2024-02-16T11:18:23;20.60;99.10
18384;DHT22;9318;48.644;9.456;2024-02-16T11:20:50;20.40;98.50
18384;DHT22;9318;48.644;9.456;2024-02-16T11:23:16;20.10;99.30
18384;DHT22;9318;48.644;9.456;2024-02-16T11:25:50;19.90;99.40
18384;DHT22;9318;48.644;9.456;2024-02-16T11:28:19;19.80;99.90
18384;DHT22;9318;48.644;9.456;2024-02-16T11:30:45;19.60;99.90
18384;DHT22;9318;48.644;9.456;2024-02-16T11:33:12;19.40;99.90
18384;DHT22;9318;48.644;9.456;2024-02-16T11:35:39;19.30;99.90
18384;DHT22;9318;48.644;9.456;2024-02-16T11:38:07;19.10;99.90
18384;DHT22;9318;48.644;9.456;2024-02-16T11:40:33;19.10;99.90
18384;DHT22;9318;48.644;9.456;2024-02-16T11:43:00;19.10;99.90
18384;DHT22;9318;48.644;9.456;2024-02-16T11:45:33;19.10;99.90
18384;DHT22;9318;48.644;9.456;2024-02-16T11:48:05;19.10;99.90
18384;DHT22;9318;48.644;9.456;2024-02-16T11:50:32;19.10;99.90
18384;DHT22;9318;48.644;9.456;2024-02-16T11:52:59;19.00;99.90
18384;DHT22;9318;48.644;9.456;2024-02-16T11:55:26;19.10;99.90
18384;DHT22;9318;48.644;9.456;2024-02-16T11:57:53;19.20;99.90
18384;DHT22;9318;48.644;9.456;2024-02-16T12:00:22;19.20;99.90
18384;DHT22;9318;48.644;9.456;2024-02-16T12:02:59;19.30;99.90
18384;DHT22;9318;48.644;9.456;2024-02-16T12:05:26;19.30;99.90
18384;DHT22;9318;48.644;9.456;2024-02-16T12:07:52;19.30;99.90
18384;DHT22;9318;48.644;9.456;2024-02-16T12:10:19;19.30;99.90
18384;DHT22;9318;48.644;9.456;2024-02-16T12:12:47;19.20;99.90
18384;DHT22;9318;48.644;9.456;2024-02-16T12:15:14;19.20;99.90
18384;DHT22;9318;48.644;9.456;2024-02-16T12:17:43;19.20;99.90
18384;DHT22;9318;48.644;9.456;2024-02-16T12:20:14;19.20;99.90
18384;DHT22;9318;48.644;9.456;2024-02-16T12:22:41;19.20;99.90
18384;DHT22;9318;48.644;9.456;2024-02-16T12:25:08;19.20;99.90
18384;DHT22;9318;48.644;9.456;2024-02-16T12:27:35;19.20;99.90
18384;DHT22;9318;48.644;9.456;2024-02-16T12:30:01;19.20;99.90
18384;DHT22;9318;48.644;9.456;2024-02-16T12:32:29;19.10;99.90
18384;DHT22;9318;48.644;9.456;2024-02-16T12:34:55;19.20;99.90
18384;DHT22;9318;48.644;9.456;2024-02-16T12:37:24;19.20;99.90
18384;DHT22;9318;48.644;9.456;2024-02-16T12:39:51;19.20;99.90
18384;DHT22;9318;48.644;9.456;2024-02-16T12:42:17;19.30;99.90
18384;DHT22;9318;48.644;9.456;2024-02-16T12:44:44;19.30;99.90
18384;DHT22;9318;48.644;9.456;2024-02-16T12:47:11;19.20;99.90
18384;DHT22;9318;48.644;9.456;2024-02-16T12:49:38;19.10;99.90
18384;DHT22;9318;48.644;9.456;2024-02-16T12:52:04;19.10;99.90
18384;DHT22;9318;48.644;9.456;2024-02-16T12:54:33;19.10;99.90
18384;DHT22;9318;48.644;9.456;2024-02-16T12:57:00;19.00;99.90
18384;DHT22;9318;48.644;9.456;2024-02-16T12:59:27;19.00;99.90
18384;DHT22;9318;48.644;9.456;2024-02-16T13:01:53;18.90;99.90
18384;DHT22;9318;48.644;9.456;2024-02-16T13:04:20;18.90;99.90
18384;DHT22;9318;48.644;9.456;2024-02-16T13:06:48;18.90;99.90
18384;DHT22;9318;48.644;9.456;2024-02-16T13:09:15;18.90;99.90
18384;DHT22;9318;48.644;9.456;2024-02-16T13:11:43;18.80;99.90
18384;DHT22;9318;48.644;9.456;2024-02-16T13:14:10;18.80;99.90
18384;DHT22;9318;48.644;9.456;2024-02-16T13:16:37;18.70;99.90
18384;DHT22;9318;48.644;9.456;2024-02-16T13:19:04;18.70;99.90
18384;DHT22;9318;48.644;9.456;2024-02-16T13:21:31;18.60;99.90
18384;DHT22;9318;48.644;9.456;2024-02-16T13:23:58;18.50;99.90
18384;DHT22;9318;48.644;9.456;2024-02-16T13:26:24;18.50;99.90
18384;DHT22;9318;48.644;9.456;2024-02-16T13:28:53;18.40;99.90
18384;DHT22;9318;48.644;9.456;2024-02-16T13:31:20;18.30;99.90
18384;DHT22;9318;48.644;9.456;2024-02-16T13:33:47;18.20;99.90
18384;DHT22;9318;48.644;9.456;2024-02-16T13:36:14;18.20;99.90
18384;DHT22;9318;48.644;9.456;2024-02-16T13:38:41;18.10;99.90
18384;DHT22;9318;48.644;9.456;2024-02-16T13:41:08;18.10;99.90
18384;DHT22;9318;48.644;9.456;2024-02-16T13:43:35;18.00;99.90
18384;DHT22;9318;48.644;9.456;2024-02-16T13:46:03;17.90;99.90
18384;DHT22;9318;48.644;9.456;2024-02-16T13:48:30;17.90;99.90
18384;DHT22;9318;48.644;9.456;2024-02-16T13:50:58;17.80;99.90
18384;DHT22;9318;48.644;9.456;2024-02-16T13:53:25;17.70;99.90
18384;DHT22;9318;48.644;9.456;2024-02-16T13:55:52;17.70;99.90
18384;DHT22;9318;48.644;9.456;2024-02-16T13:58:20;17.70;99.90
18384;DHT22;9318;48.644;9.456;2024-02-16T14:00:47;17.70;99.90
18384;DHT22;9318;48.644;9.456;2024-02-16T14:03:16;17.60;99.90
18384;DHT22;9318;48.644;9.456;2024-02-16T14:05:44;17.70;99.90
18384;DHT22;9318;48.644;9.456;2024-02-16T14:08:12;17.60;99.90
18384;DHT22;9318;48.644;9.456;2024-02-16T14:10:40;17.60;99.90
18384;DHT22;9318;48.644;9.456;2024-02-16T14:13:07;17.60;99.90
18384;DHT22;9318;48.644;9.456;2024-02-16T14:15:34;17.50;99.90
18384;DHT22;9318;48.644;9.456;2024-02-16T14:18:01;17.50;99.90
18384;DHT22;9318;48.644;9.456;2024-02-16T14:20:30;17.50;99.90
18384;DHT22;9318;48.644;9.456;2024-02-16T14:22:57;17.40;99.90
18384;DHT22;9318;48.644;9.456;2024-02-16T14:25:24;17.40;99.90
18384;DHT22;9318;48.644;9.456;2024-02-16T14:27:51;17.30;99.90
18384;DHT22;9318;48.644;9.456;2024-02-16T14:30:18;17.30;99.90
18384;DHT22;9318;48.644;9.456;2024-02-16T14:32:45;17.30;99.90
18384;DHT22;9318;48.644;9.456;2024-02-16T14:35:11;17.30;99.90
18384;DHT22;9318;48.644;9.456;2024-02-16T14:37:39;17.30;99.90
18384;DHT22;9318;48.644;9.456;2024-02-16T14:40:07;17.20;99.90
18384;DHT22;9318;48.644;9.456;2024-02-16T14:42:36;17.30;99.90
18384;DHT22;9318;48.644;9.456;2024-02-16T14:45:05;17.20;99.90
18384;DHT22;9318;48.644;9.456;2024-02-16T14:47:34;17.20;99.90
18384;DHT22;9318;48.644;9.456;2024-02-16T14:50:01;17.10;99.90
18384;DHT22;9318;48.644;9.456;2024-02-16T14:52:29;17.10;99.90
18384;DHT22;9318;48.644;9.456;2024-02-16T14:54:57;17.10;99.90
18384;DHT22;9318;48.644;9.456;2024-02-16T14:57:25;17.00;99.90
18384;DHT22;9318;48.644;9.456;2024-02-16T14:59:52;17.00;99.90
18384;DHT22;9318;48.644;9.456;2024-02-16T15:02:21;16.90;99.90
18384;DHT22;9318;48.644;9.456;2024-02-16T15:04:47;16.90;99.90
18384;DHT22;9318;48.644;9.456;2024-02-16T15:07:14;16.90;99.90
18384;DHT22;9318;48.644;9.456;2024-02-16T15:09:41;16.90;99.90
18384;DHT22;9318;48.644;9.456;2024-02-16T15:12:09;16.90;99.90
18384;DHT22;9318;48.644;9.456;2024-02-16T15:14:36;16.80;99.90
18384;DHT22;9318;48.644;9.456;2024-02-16T15:17:03;16.80;99.90
18384;DHT22;9318;48.644;9.456;2024-02-16T15:19:31;16.80;99.90
18384;DHT22;9318;48.644;9.456;2024-02-16T15:21:58;16.70;99.90
18384;DHT22;9318;48.644;9.456;2024-02-16T15:24:25;16.70;99.90
18384;DHT22;9318;48.644;9.456;2024-02-16T15:26:51;16.70;99.90
18384;DHT22;9318;48.644;9.456;2024-02-16T15:29:19;16.60;99.90
18384;DHT22;9318;48.644;9.456;2024-02-16T15:31:46;16.60;99.90
18384;DHT22;9318;48.644;9.456;2024-02-16T15:34:14;16.60;99.90
18384;DHT22;9318;48.644;9.456;2024-02-16T15:36:41;16.50;99.90
18384;DHT22;9318;48.644;9.456;2024-02-16T15:39:07;16.50;99.90
18384;DHT22;9318;48.644;9.456;2024-02-16T15:41:36;16.50;99.90
18384;DHT22;9318;48.644;9.456;2024-02-16T15:44:03;16.40;99.90
18384;DHT22;9318;48.644;9.456;2024-02-16T15:46:31;16.40;99.90
18384;DHT22;9318;48.644;9.456;2024-02-16T15:48:59;16.30;99.90
18384;DHT22;9318;48.644;9.456;2024-02-16T15:51:25;16.30;99.90
18384;DHT22;9318;48.644;9.456;2024-02-16T15:53:52;16.20;99.90
18384;DHT22;9318;48.644;9.456;2024-02-16T15:56:19;16.20;99.90